Time;durP1;ratioP1;P1;durP2;ratioP2;P2;SDS_P1;SDS_P2;PMS_P1;PMS_P2;Temp;Humidity;BMP_temperature;BMP_pressure;BME280_temperature;BME280_humidity;BME280_pressure;Samples;Min_cycle;Max_cycle;Signal;HPM_P1;HPM_P2
2023/01/29 00:01:10;;;;;;;45.67;26.40;;;0.90;99.90;;;;;;5077154;28;20372;-65
2023/01/29 00:03:35;;;;;;;45.20;26.30;;;0.90;99.90;;;;;;5076961;28;20079;-65
2023/01/29 00:06:06;;;;;;;46.38;26.60;;;0.90;99.90;;;;;;5076961;28;20296;-64
2023/01/29 00:08:36;;;;;;;43.03;25.83;;;0.90;99.90;;;;;;5076843;28;20391;-65
2023/01/29 00:11:03;;;;;;;44.03;26.38;;;0.90;99.90;;;;;;5076850;28;20037;-65
2023/01/29 00:13:29;;;;;;;41.88;25.10;;;0.90;99.90;;;;;;5076847;28;20029;-63
2023/01/29 00:15:57;;;;;;;41.17;24.35;;;0.90;99.90;;;;;;5042656;28;20093;-64
2023/01/29 00:18:24;;;;;;;42.85;24.73;;;0.80;99.90;;;;;;5059680;28;20109;-64
2023/01/29 00:20:50;;;;;;;41.95;24.98;;;0.80;99.90;;;;;;5076802;28;20040;-64
2023/01/29 00:23:16;;;;;;;41.55;25.05;;;0.80;99.90;;;;;;5076634;28;20032;-64
2023/01/29 00:25:42;;;;;;;42.80;24.90;;;0.80;99.90;;;;;;5076619;28;20413;-64
2023/01/29 00:28:09;;;;;;;44.03;25.08;;;0.80;99.90;;;;;;5026379;28;20067;-64
2023/01/29 00:30:36;;;;;;;46.13;25.85;;;0.70;99.90;;;;;;5076888;28;20423;-65
2023/01/29 00:33:03;;;;;;;41.22;24.80;;;0.60;99.90;;;;;;5059143;28;20295;-65
2023/01/29 00:35:30;;;;;;;42.40;25.45;;;0.70;99.90;;;;;;5046538;28;20028;-65
2023/01/29 00:37:57;;;;;;;40.50;24.30;;;0.80;99.90;;;;;;5080689;28;20090;-66
2023/01/29 00:40:24;;;;;;;41.00;24.23;;;0.80;99.90;;;;;;5080965;28;20303;-65
2023/01/29 00:45:35;;;;;;;46.90;25.63;;;0.80;99.90;;;;;;5081116;28;20043;-64
2023/01/29 00:48:02;;;;;;;44.10;25.00;;;0.70;99.90;;;;;;5063153;28;20360;-65
2023/01/29 00:50:29;;;;;;;46.47;26.55;;;0.70;99.90;;;;;;5080426;28;20052;-65
2023/01/29 00:52:55;;;;;;;46.75;26.17;;;0.70;99.90;;;;;;5063072;28;20059;-64
2023/01/29 00:55:21;;;;;;;45.08;26.25;;;0.70;99.90;;;;;;5063209;28;20456;-65
2023/01/29 00:57:47;;;;;;;47.80;27.30;;;0.60;99.90;;;;;;5062907;28;20051;-64
2023/01/29 01:00:17;;;;;;;44.38;25.67;;;0.60;99.90;;;;;;5062926;28;20024;-64
2023/01/29 01:05:27;;;;;;;50.20;28.23;;;0.60;99.90;;;;;;5080742;28;20081;-64
2023/01/29 01:07:55;;;;;;;46.28;27.50;;;0.70;99.90;;;;;;5063152;28;20033;-64
2023/01/29 01:10:25;;;;;;;46.20;26.80;;;0.70;99.90;;;;;;5062780;28;20028;-64
2023/01/29 01:13:00;;;;;;;47.40;26.48;;;0.70;99.90;;;;;;5080030;28;20031;-64
2023/01/29 01:15:29;;;;;;;43.63;26.85;;;0.60;99.90;;;;;;5062692;28;20025;-64
2023/01/29 01:17:57;;;;;;;49.95;28.55;;;0.50;99.90;;;;;;5062528;28;20051;-64
2023/01/29 01:20:24;;;;;;;48.72;28.02;;;0.60;99.90;;;;;;5079936;28;20036;-64
2023/01/29 01:22:53;;;;;;;56.20;30.42;;;0.60;99.90;;;;;;5062326;28;20033;-65
2023/01/29 01:25:20;;;;;;;53.47;29.15;;;0.50;99.90;;;;;;5062637;28;20461;-63
2023/01/29 01:27:46;;;;;;;56.28;30.35;;;0.60;99.90;;;;;;5062401;28;20342;-63
2023/01/29 01:30:14;;;;;;;50.78;29.77;;;0.60;99.90;;;;;;5029889;28;20089;-63
2023/01/29 01:32:42;;;;;;;53.95;29.27;;;0.60;99.90;;;;;;5062399;28;20041;-63
2023/01/29 01:35:10;;;;;;;56.28;31.00;;;0.40;99.90;;;;;;5062294;28;20056;-64
2023/01/29 01:37:39;;;;;;;65.68;31.38;;;0.30;99.90;;;;;;5062324;28;20036;-63
2023/01/29 01:40:11;;;;;;;60.45;31.83;;;0.20;99.90;;;;;;5062339;28;20106;-63
2023/01/29 01:42:40;;;;;;;53.97;29.67;;;0.20;99.90;;;;;;5062128;28;20044;-64
2023/01/29 01:45:16;;;;;;;53.80;29.60;;;0.30;99.90;;;;;;5061994;28;20032;-64
2023/01/29 01:47:46;;;;;;;54.97;29.05;;;0.30;99.90;;;;;;5062111;28;20021;-64
2023/01/29 01:50:21;;;;;;;48.92;28.92;;;0.40;99.90;;;;;;5079266;28;20033;-64
2023/01/29 01:52:54;;;;;;;50.70;29.08;;;0.40;99.90;;;;;;5079521;28;20105;-65
2023/01/29 01:55:25;;;;;;;49.08;27.90;;;0.50;99.90;;;;;;5079488;28;20044;-65
2023/01/29 01:57:56;;;;;;;46.25;27.63;;;0.50;99.90;;;;;;5079312;28;20110;-65
2023/01/29 02:00:24;;;;;;;48.00;27.23;;;0.40;99.90;;;;;;5079390;28;20024;-65
2023/01/29 02:11:30;;;;;;;45.28;26.65;;;0.50;99.90;;;;;;5079289;28;20028;-64
2023/01/29 02:13:57;;;;;;;48.50;26.83;;;0.50;99.90;;;;;;5078966;28;20033;-64
2023/01/29 02:16:24;;;;;;;47.35;27.67;;;0.60;99.90;;;;;;5061505;28;20036;-64
2023/01/29 02:18:51;;;;;;;50.03;28.35;;;0.70;99.90;;;;;;5044870;28;20032;-64
2023/01/29 02:21:28;;;;;;;46.47;27.58;;;0.80;99.90;;;;;;5061498;28;20036;-64
2023/01/29 02:24:20;;;;;;;48.78;27.85;;;0.80;99.90;;;;;;5061550;28;20024;-64
2023/01/29 02:27:04;;;;;;;44.38;26.27;;;0.90;99.90;;;;;;5078950;28;20032;-64
2023/01/29 02:29:41;;;;;;;44.50;26.38;;;1.10;99.90;;;;;;5061369;28;20036;-65
2023/01/29 02:32:30;;;;;;;45.65;26.98;;;1.20;99.90;;;;;;5078647;28;20035;-65
2023/01/29 02:35:29;;;;;;;45.22;25.98;;;1.30;99.90;;;;;;5061304;28;20028;-64
2023/01/29 02:38:05;;;;;;;45.15;25.98;;;1.30;99.90;;;;;;5078751;28;20091;-65
2023/01/29 02:40:45;;;;;;;44.72;26.27;;;1.40;99.90;;;;;;5078480;28;20033;-64
2023/01/29 02:43:39;;;;;;;42.75;25.17;;;1.40;99.90;;;;;;5060861;28;20280;-64
2023/01/29 02:46:14;;;;;;;44.65;25.98;;;1.20;99.90;;;;;;5078411;28;20032;-64
2023/01/29 02:49:05;;;;;;;46.33;25.42;;;1.10;99.90;;;;;;5078306;28;20021;-64
2023/01/29 02:51:36;;;;;;;45.63;25.52;;;1.20;99.90;;;;;;5052307;28;20375;-64
2023/01/29 02:54:28;;;;;;;43.53;25.48;;;1.30;99.90;;;;;;5078782;28;20024;-64
2023/01/29 02:57:01;;;;;;;46.60;25.42;;;1.40;99.90;;;;;;5043717;28;20364;-64
2023/01/29 02:59:39;;;;;;;47.22;24.98;;;1.10;99.90;;;;;;5060770;28;20036;-64
2023/01/29 03:02:12;;;;;;;42.33;24.17;;;0.90;99.90;;;;;;5044440;28;20048;-65
2023/01/29 03:04:45;;;;;;;43.20;24.23;;;0.80;99.90;;;;;;5078146;28;20035;-65
2023/01/29 03:07:45;;;;;;;43.15;25.05;;;0.90;99.90;;;;;;5078023;28;20032;-65
2023/01/29 03:10:21;;;;;;;41.85;23.77;;;1.00;99.90;;;;;;5045082;28;20115;-65
2023/01/29 03:12:54;;;;;;;43.20;25.30;;;1.20;99.90;;;;;;5043878;28;20036;-63
2023/01/29 03:15:37;;;;;;;42.80;25.52;;;1.30;99.90;;;;;;5077950;28;20457;-63
2023/01/29 03:18:26;;;;;;;43.22;24.65;;;1.50;99.90;;;;;;5060330;28;20112;-64
2023/01/29 03:21:49;;;;;;;42.13;24.27;;;1.50;99.90;;;;;;5044221;28;20052;-64
2023/01/29 03:32:25;;;;;;;41.05;23.88;;;1.30;99.90;;;;;;5046452;28;20058;-64
2023/01/29 03:34:57;;;;;;;38.45;22.35;;;1.10;99.90;;;;;;5060115;28;20086;-65
2023/01/29 03:37:33;;;;;;;42.78;24.27;;;1.10;99.90;;;;;;5060043;28;20368;-63
2023/01/29 03:40:04;;;;;;;40.13;22.75;;;1.30;99.90;;;;;;5060360;28;20304;-64
2023/01/29 03:42:55;;;;;;;40.78;24.10;;;1.40;99.90;;;;;;5059830;28;20115;-65
2023/01/29 03:45:58;;;;;;;41.05;23.83;;;1.20;99.90;;;;;;5060241;28;20025;-64
2023/01/29 03:48:46;;;;;;;48.05;24.23;;;1.00;99.90;;;;;;5059927;28;20043;-65
2023/01/29 03:51:34;;;;;;;38.15;23.08;;;1.10;99.90;;;;;;5056451;28;20101;-64
2023/01/29 03:54:19;;;;;;;40.83;22.55;;;1.20;99.90;;;;;;5056533;28;20025;-64
2023/01/29 03:56:57;;;;;;;41.45;23.27;;;1.10;99.90;;;;;;5056374;28;20031;-64
2023/01/29 04:00:05;;;;;;;42.55;23.00;;;1.20;99.90;;;;;;5056392;28;20032;-64
2023/01/29 04:03:16;;;;;;;38.92;22.80;;;1.40;99.90;;;;;;5056972;28;20044;-64
2023/01/29 04:06:08;;;;;;;41.70;22.80;;;1.60;99.90;;;;;;5056194;28;20029;-63
2023/01/29 04:08:57;;;;;;;44.15;24.40;;;1.30;99.90;;;;;;5032191;28;20403;-63
2023/01/29 04:11:26;;;;;;;41.03;22.90;;;1.10;99.90;;;;;;5056267;28;20025;-63
2023/01/29 04:13:52;;;;;;;43.65;23.20;;;0.90;99.90;;;;;;5056122;28;20029;-63
2023/01/29 04:16:35;;;;;;;41.67;23.48;;;0.80;99.90;;;;;;5056399;28;20033;-65
2023/01/29 04:19:18;;;;;;;43.38;23.90;;;0.80;99.90;;;;;;5056080;28;20141;-63
2023/01/29 04:21:45;;;;;;;42.83;24.50;;;0.90;99.90;;;;;;5039521;28;20035;-63
2023/01/29 04:24:13;;;;;;;49.90;23.92;;;1.00;99.90;;;;;;5056078;28;20056;-63
2023/01/29 04:26:56;;;;;;;46.83;24.70;;;1.00;99.90;;;;;;5039920;28;20339;-63
2023/01/29 04:29:44;;;;;;;43.33;23.20;;;0.90;99.90;;;;;;5055988;28;20029;-63
2023/01/29 04:32:38;;;;;;;41.88;23.85;;;0.90;99.90;;;;;;5039600;28;20037;-63
2023/01/29 04:35:29;;;;;;;43.05;24.00;;;1.00;99.90;;;;;;5055446;28;20408;-63
2023/01/29 04:38:09;;;;;;;40.25;22.55;;;1.00;99.90;;;;;;5039464;28;20025;-63
2023/01/29 04:40:36;;;;;;;40.75;23.25;;;1.00;99.90;;;;;;5055933;28;20319;-63
2023/01/29 04:43:30;;;;;;;42.70;24.77;;;1.00;99.90;;;;;;5056472;28;20041;-63
2023/01/29 04:46:17;;;;;;;38.92;24.30;;;1.00;99.90;;;;;;5034361;28;20048;-63
2023/01/29 04:49:05;;;;;;;41.67;23.42;;;1.00;99.90;;;;;;5039237;28;20048;-63
2023/01/29 04:51:35;;;;;;;39.20;22.92;;;1.00;99.90;;;;;;5072200;28;20315;-63
2023/01/29 04:54:33;;;;;;;41.60;23.02;;;1.00;99.90;;;;;;5042571;28;20124;-63
2023/01/29 04:57:17;;;;;;;45.42;24.35;;;1.10;99.90;;;;;;5057015;28;20032;-63
2023/01/29 04:59:49;;;;;;;46.25;23.80;;;1.10;99.90;;;;;;5059202;28;20392;-64
2023/01/29 05:02:15;;;;;;;;;;;1.10;99.90;;;;;;5076733;28;20024;-63
2023/01/29 05:04:44;;;;;;;42.75;23.88;;;1.10;99.90;;;;;;5059113;28;19916;-64
2023/01/29 05:07:13;;;;;;;47.33;23.65;;;1.20;99.90;;;;;;5076341;28;20074;-63
2023/01/29 05:09:42;;;;;;;37.78;22.48;;;1.20;99.90;;;;;;5076372;28;20029;-63
2023/01/29 05:12:10;;;;;;;43.35;23.85;;;1.20;99.90;;;;;;5076348;28;20033;-63
2023/01/29 05:14:38;;;;;;;41.63;23.52;;;1.20;99.90;;;;;;5076373;28;20174;-63
2023/01/29 05:17:11;;;;;;;45.35;24.65;;;1.20;99.90;;;;;;5076403;28;20345;-63
2023/01/29 05:19:37;;;;;;;42.22;24.30;;;1.20;99.90;;;;;;5076870;28;20068;-63
2023/01/29 05:22:05;;;;;;;42.65;23.10;;;1.30;99.90;;;;;;5062560;28;20097;-63
2023/01/29 05:24:31;;;;;;;45.03;23.80;;;1.40;99.90;;;;;;5062688;28;20025;-63
2023/01/29 05:29:45;;;;;;;45.53;24.25;;;1.40;99.90;;;;;;5079961;28;20451;-63
2023/01/29 05:32:12;;;;;;;43.42;24.02;;;1.40;99.90;;;;;;5045923;28;20043;-64
2023/01/29 05:34:38;;;;;;;40.42;23.45;;;1.50;99.90;;;;;;5063148;28;20055;-64
2023/01/29 05:37:04;;;;;;;42.67;23.13;;;1.60;99.90;;;;;;5045858;28;20311;-63
2023/01/29 05:39:30;;;;;;;39.75;22.73;;;1.50;99.90;;;;;;5079741;28;20025;-64
2023/01/29 05:41:56;;;;;;;44.35;23.40;;;1.60;99.90;;;;;;5062098;28;20040;-63
2023/01/29 05:44:21;;;;;;;39.88;21.85;;;1.60;99.90;;;;;;5062397;28;20446;-63
2023/01/29 05:46:48;;;;;;;45.38;23.88;;;1.50;99.90;;;;;;5079579;28;20044;-63
2023/01/29 05:49:16;;;;;;;37.55;23.33;;;1.40;99.90;;;;;;5080055;28;20033;-64
2023/01/29 05:51:42;;;;;;;41.08;22.92;;;1.40;99.90;;;;;;5062140;28;20347;-64
2023/01/29 05:54:13;;;;;;;46.25;23.75;;;1.40;99.90;;;;;;5062620;28;20043;-64
2023/01/29 05:56:39;;;;;;;40.22;23.40;;;1.30;99.90;;;;;;5045446;28;20032;-64
2023/01/29 05:59:06;;;;;;;41.10;23.02;;;1.40;99.90;;;;;;5079355;28;20303;-64
2023/01/29 06:01:32;;;;;;;42.38;23.35;;;1.30;99.90;;;;;;5061732;28;20040;-64
2023/01/29 06:03:57;;;;;;;40.78;22.98;;;1.40;99.90;;;;;;5061979;28;20085;-64
2023/01/29 06:06:23;;;;;;;38.65;22.17;;;1.40;99.90;;;;;;5061758;28;20144;-63
2023/01/29 06:08:49;;;;;;;42.97;23.48;;;1.40;99.90;;;;;;5079118;28;20016;-64
2023/01/29 06:11:17;;;;;;;39.65;22.70;;;1.50;99.90;;;;;;5061857;28;20047;-63
2023/01/29 06:13:44;;;;;;;44.08;23.25;;;1.60;99.90;;;;;;5061447;28;20048;-64
2023/01/29 06:16:11;;;;;;;41.65;22.92;;;1.40;99.90;;;;;;5078994;28;20024;-64
2023/01/29 06:18:38;;;;;;;44.22;22.85;;;1.40;99.90;;;;;;5044882;28;20388;-65
2023/01/29 06:21:06;;;;;;;42.08;22.95;;;1.40;99.90;;;;;;5061341;28;20058;-63
2023/01/29 06:23:32;;;;;;;42.03;22.20;;;1.40;99.90;;;;;;5078770;28;20029;-65
2023/01/29 06:26:00;;;;;;;39.92;21.80;;;1.40;99.90;;;;;;5062082;28;20285;-64
2023/01/29 06:28:25;;;;;;;38.25;21.98;;;1.30;99.90;;;;;;5078647;28;20024;-64
2023/01/29 06:30:51;;;;;;;41.78;22.83;;;1.30;99.90;;;;;;5078317;28;20039;-65
2023/01/29 06:33:17;;;;;;;42.25;22.50;;;1.20;99.90;;;;;;5078108;28;20041;-64
2023/01/29 06:35:43;;;;;;;44.35;23.02;;;1.20;99.90;;;;;;5078682;28;20426;-64
2023/01/29 06:38:08;;;;;;;41.67;22.60;;;1.20;99.90;;;;;;5078572;28;20410;-64
2023/01/29 06:40:37;;;;;;;41.03;23.40;;;1.20;99.90;;;;;;5078531;28;20051;-64
2023/01/29 06:43:02;;;;;;;40.65;22.30;;;1.20;99.90;;;;;;5078411;28;20029;-64
2023/01/29 06:45:28;;;;;;;39.55;22.30;;;1.20;99.90;;;;;;5045089;28;20036;-64
2023/01/29 06:47:55;;;;;;;41.95;22.73;;;1.30;99.90;;;;;;5078393;28;20393;-64
2023/01/29 06:50:21;;;;;;;40.78;22.35;;;1.30;99.90;;;;;;5060894;28;20404;-64
2023/01/29 06:52:46;;;;;;;43.45;23.35;;;1.40;99.90;;;;;;5078328;28;20028;-64
2023/01/29 06:55:12;;;;;;;41.03;23.20;;;1.30;99.90;;;;;;5060882;28;20033;-65
2023/01/29 06:57:38;;;;;;;42.78;23.42;;;1.40;99.90;;;;;;5060782;28;20119;-65
2023/01/29 07:00:05;;;;;;;40.42;22.88;;;1.40;99.90;;;;;;5078133;28;20037;-65
2023/01/29 07:02:31;;;;;;;40.28;22.63;;;1.50;99.90;;;;;;5060689;28;20036;-65
2023/01/29 07:04:56;;;;;;;43.15;23.05;;;1.60;99.90;;;;;;5044132;28;20483;-63
2023/01/29 07:07:22;;;;;;;43.08;22.85;;;1.60;99.90;;;;;;5060775;28;20388;-63
2023/01/29 07:09:48;;;;;;;42.28;23.92;;;1.60;99.90;;;;;;5044027;28;20029;-63
2023/01/29 07:12:14;;;;;;;39.58;22.77;;;1.60;99.90;;;;;;5043855;28;20097;-63
2023/01/29 07:14:40;;;;;;;38.17;22.45;;;1.60;99.90;;;;;;5060396;28;20037;-64
2023/01/29 07:17:05;;;;;;;41.08;23.08;;;1.70;99.90;;;;;;5060349;28;20060;-65
2023/01/29 07:19:31;;;;;;;39.90;22.52;;;1.80;99.90;;;;;;5060476;28;20029;-63
2023/01/29 07:22:01;;;;;;;39.92;22.38;;;1.80;99.90;;;;;;5060172;28;20424;-63
2023/01/29 07:24:26;;;;;;;41.08;22.25;;;1.80;99.90;;;;;;5078309;28;20029;-63
2023/01/29 07:26:52;;;;;;;39.17;23.27;;;1.90;99.90;;;;;;5077512;28;20093;-63
2023/01/29 07:29:18;;;;;;;40.45;22.70;;;2.00;99.90;;;;;;5060328;28;20036;-63
2023/01/29 07:31:44;;;;;;;40.67;22.90;;;1.90;99.90;;;;;;5077416;28;20039;-63
2023/01/29 07:34:10;;;;;;;37.38;21.80;;;1.90;99.90;;;;;;5077776;28;20025;-63
2023/01/29 07:36:36;;;;;;;41.53;22.50;;;1.90;99.90;;;;;;5043399;28;20075;-63
2023/01/29 07:39:02;;;;;;;41.17;22.27;;;1.90;99.90;;;;;;5077422;28;20029;-63
2023/01/29 07:41:27;;;;;;;39.60;22.20;;;1.90;99.90;;;;;;5077328;28;20040;-64
2023/01/29 07:43:53;;;;;;;37.13;21.35;;;1.90;99.90;;;;;;5043099;28;20419;-64
2023/01/29 07:46:19;;;;;;;37.55;21.90;;;1.90;99.90;;;;;;5060832;28;20115;-64
2023/01/29 07:48:45;;;;;;;40.70;23.40;;;2.00;99.90;;;;;;5043160;28;20028;-64
2023/01/29 07:51:11;;;;;;;41.00;22.38;;;2.10;99.90;;;;;;5076902;28;20056;-64
2023/01/29 07:53:37;;;;;;;43.38;22.88;;;2.10;99.90;;;;;;5077255;28;20036;-64
2023/01/29 07:56:03;;;;;;;39.42;22.92;;;2.10;99.90;;;;;;5059836;28;20035;-64
2023/01/29 07:58:28;;;;;;;41.28;21.92;;;2.20;99.90;;;;;;5077203;28;20040;-64
2023/01/29 08:00:54;;;;;;;40.40;22.23;;;2.30;99.90;;;;;;5043445;28;20063;-63
2023/01/29 08:03:20;;;;;;;38.95;23.33;;;2.20;99.90;;;;;;5059258;28;20308;-64
2023/01/29 08:05:46;;;;;;;38.55;21.88;;;2.10;99.90;;;;;;5077582;28;20365;-64
2023/01/29 08:08:12;;;;;;;38.22;21.92;;;2.00;99.90;;;;;;5076823;28;20119;-65
2023/01/29 08:10:39;;;;;;;42.22;22.45;;;1.90;99.90;;;;;;5076997;28;20033;-63
2023/01/29 08:13:07;;;;;;;38.95;21.27;;;1.90;99.90;;;;;;5059528;28;20041;-63
2023/01/29 08:15:33;;;;;;;37.92;21.13;;;1.90;99.90;;;;;;5042933;28;20036;-63
2023/01/29 08:18:01;;;;;;;41.00;22.08;;;1.90;99.90;;;;;;5076782;28;20035;-64
2023/01/29 08:20:27;;;;;;;39.50;22.00;;;1.90;99.90;;;;;;5059470;28;20060;-64
2023/01/29 08:23:11;;;;;;;41.70;22.25;;;2.00;99.90;;;;;;5042531;28;20039;-63
2023/01/29 08:25:36;;;;;;;37.63;21.75;;;2.00;99.90;;;;;;5077073;28;20078;-63
2023/01/29 08:28:03;;;;;;;39.72;21.67;;;2.00;99.90;;;;;;5076734;28;20021;-64
2023/01/29 08:30:31;;;;;;;43.35;23.40;;;2.00;99.90;;;;;;5059391;28;20090;-64
2023/01/29 08:32:57;;;;;;;37.38;20.67;;;2.00;99.90;;;;;;5042635;28;20404;-65
2023/01/29 08:35:22;;;;;;;40.60;22.40;;;2.00;99.90;;;;;;5026267;28;20047;-64
2023/01/29 08:37:58;;;;;;;35.97;21.50;;;2.10;99.90;;;;;;5059214;28;20308;-65
2023/01/29 08:40:24;;;;;;;42.72;22.63;;;2.20;99.90;;;;;;5060714;28;20037;-64
2023/01/29 08:42:50;;;;;;;40.17;21.67;;;2.30;99.90;;;;;;5043004;28;20052;-64
2023/01/29 08:45:16;;;;;;;40.35;22.30;;;2.30;99.90;;;;;;5042728;28;20396;-64
2023/01/29 08:47:47;;;;;;;37.40;21.35;;;2.40;99.90;;;;;;5042462;28;20288;-63
2023/01/29 08:50:14;;;;;;;37.55;20.98;;;2.30;99.90;;;;;;5076370;28;20044;-63
2023/01/29 08:52:39;;;;;;;36.50;20.52;;;2.20;99.90;;;;;;5076838;28;20048;-64
2023/01/29 08:55:06;;;;;;;37.00;20.52;;;2.30;99.90;;;;;;5078331;28;20388;-64
2023/01/29 08:57:31;;;;;;;38.72;22.25;;;2.40;99.90;;;;;;5062975;28;20044;-64
2023/01/29 08:59:57;;;;;;;35.05;20.52;;;2.60;99.90;;;;;;5063169;28;20354;-65
2023/01/29 09:02:23;;;;;;;38.30;20.88;;;2.50;99.90;;;;;;5046291;28;20043;-62
2023/01/29 09:04:49;;;;;;;33.15;19.08;;;2.40;99.90;;;;;;5080350;28;20102;-63
2023/01/29 09:07:15;;;;;;;35.53;19.90;;;2.40;99.90;;;;;;5080345;28;20471;-63
2023/01/29 09:09:40;;;;;;;36.95;20.42;;;2.30;99.90;;;;;;5063538;28;20033;-63
2023/01/29 09:12:06;;;;;;;35.90;20.50;;;2.30;99.90;;;;;;5046321;28;20032;-64
2023/01/29 09:14:32;;;;;;;35.38;19.80;;;2.30;99.90;;;;;;5046271;28;20343;-65
2023/01/29 09:16:58;;;;;;;36.13;20.10;;;2.40;99.90;;;;;;5062821;28;20032;-62
2023/01/29 09:19:24;;;;;;;32.80;18.65;;;2.40;99.90;;;;;;5080011;28;20056;-63
2023/01/29 09:21:50;;;;;;;33.35;19.20;;;2.40;99.90;;;;;;5062442;28;20075;-63
2023/01/29 09:24:16;;;;;;;33.92;19.83;;;2.40;99.90;;;;;;5079926;28;20028;-64
2023/01/29 09:26:41;;;;;;;34.38;19.10;;;2.40;99.90;;;;;;5079875;28;20079;-64
2023/01/29 09:29:09;;;;;;;36.30;19.67;;;2.40;99.90;;;;;;5079888;28;20362;-63
2023/01/29 09:31:35;;;;;;;33.38;18.98;;;2.50;99.90;;;;;;5045723;28;20021;-64
2023/01/29 09:34:01;;;;;;;32.72;19.02;;;2.40;99.90;;;;;;5079724;28;20024;-64
2023/01/29 09:36:27;;;;;;;32.63;18.45;;;2.60;99.90;;;;;;5062978;28;20040;-65
2023/01/29 09:38:52;;;;;;;35.33;18.60;;;2.60;99.90;;;;;;5045927;28;20088;-64
2023/01/29 09:41:50;;;;;;;33.03;18.33;;;2.60;99.90;;;;;;5029194;28;20470;-64
2023/01/29 09:44:40;;;;;;;32.42;18.95;;;2.60;99.90;;;;;;5045666;28;20024;-63
2023/01/29 09:47:12;;;;;;;34.90;19.42;;;2.70;99.90;;;;;;5079735;28;20061;-63
2023/01/29 09:49:48;;;;;;;26.10;14.20;;;2.60;99.90;;;;;;5062082;28;20415;-64
2023/01/29 09:52:21;;;;;;;36.05;18.92;;;2.60;99.90;;;;;;5079820;28;20028;-64
2023/01/29 09:54:55;;;;;;;35.47;19.48;;;2.60;99.90;;;;;;5062000;28;20304;-64
2023/01/29 09:57:53;;;;;;;33.20;19.17;;;2.70;99.90;;;;;;5079498;28;20043;-64
2023/01/29 10:00:31;;;;;;;36.28;20.33;;;2.70;99.90;;;;;;5039866;28;20044;-65
2023/01/29 10:03:31;;;;;;;34.67;19.08;;;2.70;99.90;;;;;;5061598;28;20354;-62
2023/01/29 10:06:28;;;;;;;33.00;19.33;;;2.70;99.90;;;;;;5060969;28;20044;-63
2023/01/29 10:09:45;;;;;;;32.35;19.17;;;2.70;99.90;;;;;;5079246;28;20024;-65
2023/01/29 10:12:29;;;;;;;32.97;19.60;;;2.70;99.90;;;;;;5045794;28;20040;-63
2023/01/29 10:14:55;;;;;;;35.10;19.90;;;2.70;99.90;;;;;;5079169;28;20039;-64
2023/01/29 10:17:51;;;;;;;34.95;20.52;;;2.80;99.90;;;;;;5079410;28;20399;-63
2023/01/29 10:20:37;;;;;;;34.63;20.35;;;2.90;99.90;;;;;;5079024;28;20062;-64
2023/01/29 10:23:15;;;;;;;36.83;19.77;;;3.00;99.90;;;;;;5061534;28;20139;-64
2023/01/29 10:25:44;;;;;;;34.40;19.42;;;3.00;99.90;;;;;;5078941;28;20104;-65
2023/01/29 10:28:22;;;;;;;32.00;19.15;;;3.00;99.90;;;;;;5061368;28;20028;-64
2023/01/29 10:30:50;;;;;;;33.88;19.58;;;2.90;99.90;;;;;;5078855;28;20036;-63
2023/01/29 10:33:31;;;;;;;35.80;19.92;;;3.00;99.90;;;;;;5078715;28;20123;-63
2023/01/29 10:36:03;;;;;;;34.42;19.83;;;2.90;99.90;;;;;;5079375;28;20029;-62
2023/01/29 10:38:38;;;;;;;37.00;20.15;;;2.90;99.90;;;;;;5078772;28;20273;-64
2023/01/29 10:41:10;;;;;;;37.45;20.70;;;3.00;99.90;;;;;;5078622;28;20125;-62
2023/01/29 10:44:07;;;;;;;34.50;20.55;;;3.10;99.90;;;;;;5078469;28;20036;-63
2023/01/29 10:46:57;;;;;;;36.83;20.65;;;3.00;99.90;;;;;;5078505;28;20029;-62
2023/01/29 10:49:36;;;;;;;37.95;21.55;;;3.10;99.90;;;;;;5078475;28;20080;-62
2023/01/29 10:52:17;;;;;;;33.22;19.77;;;3.20;99.90;;;;;;5078860;28;20119;-62
2023/01/29 10:55:20;;;;;;;34.70;19.80;;;3.20;99.90;;;;;;5078331;28;20034;-62
2023/01/29 10:57:58;;;;;;;35.05;20.90;;;3.10;99.90;;;;;;5061106;28;20063;-62
2023/01/29 11:00:29;;;;;;;37.67;20.80;;;3.10;99.90;;;;;;5078316;28;20039;-63
2023/01/29 11:02:55;;;;;;;37.90;21.52;;;3.20;99.90;;;;;;5078103;28;20032;-63
2023/01/29 11:05:40;;;;;;;36.38;21.40;;;3.20;99.90;;;;;;5060590;28;20071;-62
2023/01/29 11:08:14;;;;;;;36.72;21.38;;;3.30;99.90;;;;;;5078271;28;20024;-62
2023/01/29 11:11:27;;;;;;;39.08;21.55;;;3.40;99.90;;;;;;5078501;28;20078;-62
2023/01/29 11:14:09;;;;;;;37.92;21.05;;;3.40;99.90;;;;;;5073961;28;20056;-62
2023/01/29 11:16:46;;;;;;;33.40;20.63;;;3.40;99.90;;;;;;5077920;28;20039;-61
2023/01/29 11:19:12;;;;;;;34.78;20.02;;;3.40;99.90;;;;;;5077433;28;20034;-60
2023/01/29 11:21:52;;;;;;;36.45;21.60;;;3.50;99.90;;;;;;5060658;28;20277;-61
2023/01/29 11:24:17;;;;;;;37.05;21.10;;;3.60;99.90;;;;;;5077732;28;20043;-62
2023/01/29 11:26:47;;;;;;;33.97;20.13;;;3.70;99.90;;;;;;5060253;28;20020;-62
2023/01/29 11:29:44;;;;;;;34.38;19.83;;;3.90;99.90;;;;;;5077686;28;20024;-62
2023/01/29 11:32:24;;;;;;;32.45;19.85;;;4.00;99.90;;;;;;5060225;28;20405;-62
2023/01/29 11:35:02;;;;;;;33.78;18.85;;;4.00;99.90;;;;;;5077493;28;20029;-62
2023/01/29 11:37:39;;;;;;;32.33;19.50;;;4.30;99.90;;;;;;5060173;28;20300;-63
2023/01/29 11:40:17;;;;;;;38.92;20.80;;;4.40;99.90;;;;;;5060046;28;20039;-62
2023/01/29 11:42:44;;;;;;;33.38;19.33;;;4.40;99.90;;;;;;5077238;28;20036;-61
2023/01/29 11:45:22;;;;;;;31.25;19.42;;;4.30;99.90;;;;;;5077396;28;20024;-61
2023/01/29 11:47:51;;;;;;;33.35;19.95;;;4.20;99.90;;;;;;5077195;28;20028;-62
2023/01/29 11:50:32;;;;;;;31.75;19.17;;;4.20;99.90;;;;;;5059528;28;20041;-61
2023/01/29 11:53:02;;;;;;;30.80;18.55;;;4.40;99.90;;;;;;5077265;28;20031;-62
2023/01/29 11:55:32;;;;;;;33.97;19.35;;;4.50;99.90;;;;;;5077910;28;20029;-61
2023/01/29 11:58:16;;;;;;;31.63;19.65;;;4.50;99.90;;;;;;5043122;28;20412;-62
2023/01/29 12:00:47;;;;;;;30.08;19.02;;;4.50;99.90;;;;;;5077288;28;20041;-63
2023/01/29 12:03:32;;;;;;;29.48;18.75;;;4.60;99.90;;;;;;5059853;28;20055;-61
2023/01/29 12:06:29;;;;;;;31.48;19.63;;;4.60;99.90;;;;;;5077241;28;20300;-60
2023/01/29 12:08:58;;;;;;;30.17;17.80;;;4.80;99.90;;;;;;5059711;28;20054;-65
2023/01/29 12:11:33;;;;;;;33.35;18.08;;;5.00;99.90;;;;;;5077048;28;20020;-62
2023/01/29 12:14:03;;;;;;;29.33;17.95;;;5.30;99.90;;;;;;5059902;28;20335;-64
2023/01/29 12:16:51;;;;;;;27.52;17.50;;;5.20;99.90;;;;;;5076879;28;20086;-63
2023/01/29 12:19:31;;;;;;;28.23;17.17;;;5.10;99.90;;;;;;5076890;28;20051;-62
2023/01/29 12:22:08;;;;;;;31.17;18.55;;;5.00;99.90;;;;;;5076822;28;20025;-62
2023/01/29 12:24:51;;;;;;;31.85;18.58;;;5.00;99.90;;;;;;5076802;28;20020;-63
2023/01/29 12:27:24;;;;;;;;;;;5.20;99.90;;;;;;5059724;28;20029;-61
2023/01/29 12:30:14;;;;;;;28.08;16.65;;;5.10;99.90;;;;;;5075873;28;19918;-62
2023/01/29 12:32:49;;;;;;;27.08;17.27;;;5.20;99.90;;;;;;5076703;28;20036;-62
2023/01/29 12:35:32;;;;;;;27.95;16.77;;;5.20;99.90;;;;;;5076865;28;20127;-63
2023/01/29 12:38:09;;;;;;;28.77;17.13;;;5.40;99.90;;;;;;5059412;28;20032;-62
2023/01/29 12:41:02;;;;;;;27.27;16.30;;;5.80;99.90;;;;;;5059377;28;20032;-62
2023/01/29 12:43:37;;;;;;;27.95;16.83;;;5.60;99.90;;;;;;5076644;28;20032;-63
2023/01/29 12:46:06;;;;;;;23.48;16.08;;;5.70;99.90;;;;;;5076756;28;20043;-63
2023/01/29 12:48:35;;;;;;;25.00;16.13;;;5.60;99.90;;;;;;5076509;28;20033;-62
2023/01/29 12:51:13;;;;;;;26.35;17.05;;;5.50;99.90;;;;;;5058986;28;20505;-63
2023/01/29 12:53:47;;;;;;;27.90;16.50;;;5.40;99.90;;;;;;5076554;28;20048;-63
2023/01/29 12:56:27;;;;;;;25.42;15.50;;;5.40;99.90;;;;;;5077183;28;20338;-64
2023/01/29 12:58:55;;;;;;;25.77;16.27;;;5.30;99.90;;;;;;5042378;28;20064;-62
2023/01/29 13:01:33;;;;;;;25.88;16.33;;;5.20;99.90;;;;;;5059087;28;20044;-65
2023/01/29 13:04:02;;;;;;;24.75;15.35;;;5.30;99.90;;;;;;5076551;28;20296;-63
2023/01/29 13:06:35;;;;;;;22.98;14.57;;;5.50;99.90;;;;;;5059242;28;20025;-63
2023/01/29 13:09:05;;;;;;;25.17;15.57;;;5.60;99.90;;;;;;5042482;28;20112;-64
2023/01/29 13:11:47;;;;;;;25.25;15.82;;;5.40;99.90;;;;;;5059013;28;20029;-63
2023/01/29 13:14:20;;;;;;;25.52;15.38;;;5.40;99.90;;;;;;5076432;28;20076;-63
2023/01/29 13:16:51;;;;;;;27.55;16.80;;;5.60;99.90;;;;;;5058984;28;20278;-63
2023/01/29 13:19:46;;;;;;;25.88;14.43;;;5.40;99.90;;;;;;5076551;28;20037;-65
2023/01/29 13:22:46;;;;;;;24.00;14.85;;;5.40;99.90;;;;;;5076284;28;20039;-63
2023/01/29 13:25:17;;;;;;;22.33;14.65;;;5.10;99.90;;;;;;5056837;28;20040;-64
2023/01/29 13:27:47;;;;;;;25.50;14.63;;;5.10;99.90;;;;;;5059016;28;20416;-65
2023/01/29 13:30:35;;;;;;;24.15;14.98;;;5.10;99.90;;;;;;5058795;28;20039;-63
2023/01/29 13:33:09;;;;;;;24.92;15.57;;;5.20;99.90;;;;;;5042183;28;20028;-64
2023/01/29 13:35:41;;;;;;;24.63;15.90;;;5.10;99.90;;;;;;5076291;28;20418;-64